createdAt,value
2022-12-18T00:00:20.439Z,68.85
2022-12-18T00:01:25.920Z,61.47
2022-12-18T00:02:28.850Z,58.72
2022-12-18T00:03:31.260Z,62.63
2022-12-18T00:04:33.892Z,60.22
2022-12-18T00:05:37.350Z,62.72
2022-12-18T00:06:40.059Z,60.47
2022-12-18T00:07:43.605Z,61.95
2022-12-18T00:08:46.641Z,65.95
2022-12-18T00:09:49.186Z,62.03
2022-12-18T00:10:53.888Z,65.80
2022-12-18T00:13:18.271Z,61.92
2022-12-18T00:14:20.934Z,63.35
2022-12-18T00:15:23.378Z,64.70
2022-12-18T00:16:27.030Z,70.13
2022-12-18T00:17:29.386Z,67.43
2022-12-18T00:18:32.344Z,64.68
2022-12-18T00:19:35.103Z,75.25
2022-12-18T00:20:39.453Z,75.32
2022-12-18T00:21:42.841Z,69.32
2022-12-18T00:22:45.332Z,75.47
2022-12-18T00:23:49.309Z,69.05
2022-12-18T00:24:52.755Z,73.10
2022-12-18T00:25:55.424Z,69.63
2022-12-18T00:26:58.069Z,70.07
2022-12-18T00:28:00.433Z,66.43
2022-12-18T00:29:06.951Z,71.03
2022-12-18T00:30:10.389Z,72.15
2022-12-18T00:31:17.022Z,73.35
2022-12-18T00:32:19.644Z,66.00
2022-12-18T00:33:22.148Z,66.47
2022-12-18T00:34:24.644Z,69.80
2022-12-18T00:35:28.335Z,68.03
2022-12-18T00:36:34.487Z,62.20
2022-12-18T00:37:37.037Z,58.58
2022-12-18T00:38:41.149Z,72.82
2022-12-18T00:39:43.503Z,60.17
2022-12-18T00:40:45.858Z,73.40
2022-12-18T00:42:06.816Z,68.70
2022-12-18T00:43:09.216Z,64.45
2022-12-18T00:44:14.176Z,69.70
2022-12-18T00:45:16.618Z,65.72
2022-12-18T00:46:19.003Z,68.13
2022-12-18T00:47:22.241Z,69.63
2022-12-18T00:48:25.144Z,64.72
2022-12-18T00:49:27.656Z,71.78
2022-12-18T00:50:30.957Z,71.53
2022-12-18T00:51:34.779Z,69.88
2022-12-18T00:52:37.509Z,60.45
2022-12-18T00:53:42.507Z,68.90
2022-12-18T00:54:45.095Z,66.47
2022-12-18T00:55:47.885Z,67.45
2022-12-18T00:56:50.495Z,72.43
2022-12-18T00:57:53.674Z,66.72
2022-12-18T00:58:56.183Z,60.35
2022-12-18T00:59:58.892Z,65.20
2022-12-18T01:01:01.380Z,68.63
2022-12-18T01:02:03.992Z,61.67
2022-12-18T01:03:07.601Z,60.42
2022-12-18T01:04:10.251Z,64.60
2022-12-18T01:05:14.718Z,65.80
2022-12-18T01:06:17.854Z,67.68
2022-12-18T01:07:20.241Z,67.47
2022-12-18T01:08:22.865Z,67.95
2022-12-18T01:09:25.605Z,63.67
2022-12-18T01:10:28.199Z,64.88
2022-12-18T01:11:33.693Z,65.25
2022-12-18T01:12:36.269Z,67.78
2022-12-18T01:13:39.533Z,64.05
2022-12-18T01:14:42.154Z,63.20
2022-12-18T01:15:51.602Z,61.72
2022-12-18T01:16:54.314Z,64.38
2022-12-18T01:18:02.693Z,66.72
2022-12-18T01:19:05.381Z,61.10
2022-12-18T01:20:09.686Z,63.08
2022-12-18T01:22:16.562Z,60.10
2022-12-18T01:23:20.833Z,69.00
2022-12-18T01:24:23.235Z,64.22
2022-12-18T01:25:26.267Z,62.60
2022-12-18T01:26:30.692Z,61.10
2022-12-18T01:27:35.389Z,56.20
2022-12-18T01:28:40.665Z,64.05
2022-12-18T01:29:46.464Z,67.35
2022-12-18T01:30:49.062Z,63.92
2022-12-18T01:31:51.461Z,67.90
2022-12-18T01:32:54.128Z,70.28
2022-12-18T01:33:57.018Z,68.03
2022-12-18T01:34:59.639Z,78.63
2022-12-18T01:36:03.610Z,67.57
2022-12-18T01:37:06.419Z,68.20
2022-12-18T01:38:09.432Z,76.25
2022-12-18T01:39:13.886Z,74.63
2022-12-18T01:40:17.781Z,68.70
2022-12-18T01:41:49.165Z,69.68
2022-12-18T01:42:54.850Z,63.70
2022-12-18T01:43:59.353Z,64.38
2022-12-18T01:45:07.989Z,65.18
2022-12-18T01:46:10.526Z,71.28
2022-12-18T01:47:19.633Z,79.30
2022-12-18T01:48:22.021Z,76.88
2022-12-18T01:49:24.350Z,75.15
2022-12-18T01:50:33.343Z,67.40
2022-12-18T01:51:35.690Z,75.28
2022-12-18T01:52:38.949Z,73.55
2022-12-18T01:53:43.134Z,76.80
2022-12-18T01:55:52.703Z,65.53
2022-12-18T01:56:55.213Z,71.32
2022-12-18T01:57:59.840Z,69.68
2022-12-18T01:59:09.362Z,70.55
2022-12-18T02:00:21.104Z,73.85
2022-12-18T02:01:41.766Z,68.65
2022-12-18T02:02:48.985Z,70.90
2022-12-18T02:03:53.126Z,72.90
2022-12-18T02:04:55.662Z,70.75
2022-12-18T02:06:07.114Z,71.13
2022-12-18T02:07:23.265Z,68.55
2022-12-18T02:08:42.923Z,67.38
2022-12-18T02:09:51.537Z,68.55
2022-12-18T02:11:08.494Z,73.43
2022-12-18T02:12:24.210Z,70.75
2022-12-18T02:13:36.130Z,70.97
2022-12-18T02:15:03.436Z,67.80
2022-12-18T02:16:27.713Z,69.28
2022-12-18T02:17:38.924Z,70.47
2022-12-18T02:18:46.782Z,71.38
2022-12-18T02:19:58.106Z,80.22
2022-12-18T02:21:00.569Z,71.72
2022-12-18T02:22:24.256Z,76.40
2022-12-18T02:23:46.148Z,68.85
2022-12-18T02:25:28.316Z,77.78
2022-12-18T02:28:09.938Z,67.57
2022-12-18T02:29:23.936Z,71.15
2022-12-18T02:30:30.453Z,64.97
2022-12-18T02:31:42.103Z,72.97
2022-12-18T02:32:52.181Z,72.13
2022-12-18T02:33:59.957Z,69.85
2022-12-18T02:35:05.493Z,72.80
2022-12-18T02:36:10.788Z,69.78
2022-12-18T02:37:17.169Z,75.50
2022-12-18T02:38:20.103Z,72.90
2022-12-18T02:39:27.915Z,79.72
2022-12-18T02:40:39.485Z,74.78
2022-12-18T02:41:42.957Z,75.28
2022-12-18T02:42:45.809Z,70.88
2022-12-18T02:43:58.432Z,73.50
2022-12-18T02:45:01.770Z,70.13
2022-12-18T02:46:26.767Z,68.53
2022-12-18T02:47:33.900Z,70.82
2022-12-18T02:48:36.582Z,69.13
2022-12-18T02:49:58.744Z,74.72
2022-12-18T02:51:13.022Z,74.32
2022-12-18T02:52:26.263Z,71.45
2022-12-18T02:53:49.480Z,71.85
2022-12-18T02:55:13.795Z,73.13
2022-12-18T02:56:23.068Z,71.28
2022-12-18T02:57:42.030Z,71.75
2022-12-18T02:58:59.585Z,66.93
2022-12-18T03:00:12.817Z,71.80
2022-12-18T03:01:40.551Z,69.25
2022-12-18T03:02:57.512Z,70.85
2022-12-18T03:04:05.442Z,68.93
2022-12-18T03:05:16.147Z,71.82
2022-12-18T03:06:27.892Z,75.32
2022-12-18T03:07:48.171Z,68.68
2022-12-18T03:08:56.036Z,71.78
2022-12-18T03:10:00.093Z,69.82
2022-12-18T03:11:09.995Z,71.03
2022-12-18T03:12:26.268Z,73.55
2022-12-18T03:13:45.852Z,64.75
2022-12-18T03:14:58.809Z,70.00
2022-12-18T03:16:04.316Z,67.68
2022-12-18T03:17:10.887Z,69.88
2022-12-18T03:18:21.173Z,71.68
2022-12-18T03:19:27.117Z,72.75
2022-12-18T03:20:36.830Z,69.60
2022-12-18T03:21:49.587Z,80.43
2022-12-18T03:22:57.260Z,73.97
2022-12-18T03:24:01.982Z,72.60
2022-12-18T03:25:09.804Z,71.90
2022-12-18T03:26:17.930Z,71.85
2022-12-18T03:27:23.846Z,65.80
2022-12-18T03:28:32.793Z,71.65
2022-12-18T03:29:53.827Z,67.22
2022-12-18T03:31:03.327Z,68.95
2022-12-18T03:32:21.892Z,73.25
2022-12-18T03:33:41.667Z,68.63
2022-12-18T03:34:48.850Z,68.32
2022-12-18T03:35:52.841Z,74.72
2022-12-18T03:36:55.349Z,69.28
2022-12-18T03:37:59.497Z,72.30
2022-12-18T03:39:02.592Z,69.85
2022-12-18T03:40:07.176Z,74.65
2022-12-18T03:41:25.133Z,68.25
2022-12-18T03:43:12.274Z,63.38
2022-12-18T03:44:36.055Z,73.88
2022-12-18T03:45:49.556Z,68.80
2022-12-18T03:47:04.232Z,74.97
2022-12-18T03:48:19.858Z,74.22
2022-12-18T03:49:29.034Z,72.35
2022-12-18T03:50:56.455Z,70.03
2022-12-18T03:52:07.014Z,68.28
2022-12-18T03:53:23.077Z,68.40
2022-12-18T03:54:28.248Z,70.68
2022-12-18T03:55:39.230Z,67.65
2022-12-18T03:57:50.456Z,61.58
2022-12-18T03:58:55.131Z,62.22
2022-12-18T04:00:11.658Z,63.03
2022-12-18T04:01:53.631Z,67.10
2022-12-18T04:02:58.331Z,74.38
2022-12-18T04:04:11.634Z,67.57
2022-12-18T04:05:18.795Z,63.88
2022-12-18T04:06:22.074Z,66.60
2022-12-18T04:07:25.534Z,73.68
2022-12-18T04:08:28.981Z,80.95
2022-12-18T04:09:42.833Z,69.93
2022-12-18T04:10:45.558Z,72.68
2022-12-18T04:11:49.050Z,70.60
2022-12-18T04:12:56.498Z,65.30
2022-12-18T04:13:59.923Z,69.47
2022-12-18T04:15:02.217Z,69.00
2022-12-18T04:16:06.422Z,74.63
2022-12-18T04:17:09.012Z,77.50
2022-12-18T04:18:11.247Z,70.72
2022-12-18T04:19:18.162Z,76.28
2022-12-18T04:20:23.560Z,76.05
2022-12-18T04:21:25.954Z,74.03
2022-12-18T04:22:31.629Z,71.15
2022-12-18T04:23:35.566Z,79.25
2022-12-18T04:24:38.060Z,75.30
2022-12-18T04:25:51.866Z,70.05
2022-12-18T04:27:03.690Z,73.68
2022-12-18T04:28:09.736Z,70.35
2022-12-18T04:29:16.382Z,77.15
2022-12-18T04:30:18.785Z,70.90
2022-12-18T04:31:21.620Z,70.35
2022-12-18T04:32:24.269Z,74.35
2022-12-18T04:33:27.239Z,76.32
2022-12-18T04:34:30.743Z,74.47
2022-12-18T04:35:34.126Z,69.32
2022-12-18T04:36:37.247Z,79.95
2022-12-18T04:37:40.676Z,65.95
2022-12-18T04:38:43.689Z,73.93
2022-12-18T04:39:49.667Z,73.38
2022-12-18T04:40:59.530Z,71.20
2022-12-18T04:42:07.053Z,65.35
2022-12-18T04:43:11.882Z,73.03
2022-12-18T04:45:17.402Z,62.42
2022-12-18T04:46:20.228Z,68.60
2022-12-18T04:47:23.010Z,51.40
2022-12-18T04:48:25.766Z,71.00
2022-12-18T04:49:28.259Z,69.60
2022-12-18T04:50:31.186Z,66.93
2022-12-18T04:51:34.025Z,67.40
2022-12-18T04:52:37.352Z,65.88
2022-12-18T04:53:40.239Z,64.43
2022-12-18T04:54:43.163Z,78.43
2022-12-18T04:55:45.789Z,68.97
2022-12-18T04:56:49.021Z,70.85
2022-12-18T04:57:51.605Z,68.90
2022-12-18T04:58:55.707Z,67.25
2022-12-18T04:59:59.229Z,71.97
2022-12-18T05:01:02.428Z,69.40
2022-12-18T05:02:05.849Z,70.18
2022-12-18T05:03:08.254Z,68.43
2022-12-18T05:04:11.004Z,69.05
2022-12-18T05:05:13.539Z,72.90
2022-12-18T05:06:16.268Z,82.57
2022-12-18T05:07:18.667Z,71.63
2022-12-18T05:08:21.401Z,75.45
2022-12-18T05:09:24.219Z,68.97
2022-12-18T05:10:26.779Z,75.68
2022-12-18T05:11:30.728Z,73.32
2022-12-18T05:12:34.851Z,71.72
2022-12-18T05:13:39.443Z,72.38
2022-12-18T05:14:42.069Z,74.60
2022-12-18T05:15:55.024Z,69.70
2022-12-18T05:17:01.004Z,69.28
2022-12-18T05:18:04.851Z,70.40
2022-12-18T05:19:08.796Z,70.95
2022-12-18T05:20:11.636Z,71.93
2022-12-18T05:21:13.991Z,77.07
2022-12-18T05:22:16.768Z,72.43
2022-12-18T05:23:21.596Z,70.43
2022-12-18T05:24:23.976Z,74.78
2022-12-18T05:25:26.419Z,76.68
2022-12-18T05:26:28.976Z,75.97
2022-12-18T05:27:31.344Z,76.85
2022-12-18T05:28:36.006Z,83.38
2022-12-18T05:29:38.672Z,71.28
2022-12-18T05:30:41.388Z,72.38
2022-12-18T05:31:46.235Z,72.97
2022-12-18T05:32:48.970Z,77.75
2022-12-18T05:33:51.415Z,68.28
2022-12-18T05:34:54.132Z,75.30
2022-12-18T05:35:59.323Z,73.50
2022-12-18T05:37:01.729Z,70.00
2022-12-18T05:38:04.222Z,70.40
2022-12-18T05:39:07.798Z,69.18
2022-12-18T05:40:11.014Z,70.47
2022-12-18T05:41:13.491Z,70.57
2022-12-18T05:42:15.921Z,66.53
2022-12-18T05:43:22.692Z,72.70
2022-12-18T05:44:25.377Z,77.15
2022-12-18T05:45:28.122Z,64.88
2022-12-18T05:46:30.897Z,70.72
2022-12-18T05:47:33.736Z,74.47
2022-12-18T05:48:36.543Z,77.50
2022-12-18T05:49:38.962Z,77.57
2022-12-18T05:50:43.874Z,77.00
2022-12-18T05:51:47.299Z,79.40
2022-12-18T05:52:50.327Z,76.00
2022-12-18T05:53:52.729Z,85.00
2022-12-18T05:54:55.140Z,102.22
2022-12-18T05:56:02.225Z,102.35
2022-12-18T05:57:04.797Z,107.88
2022-12-18T05:58:08.933Z,104.85
2022-12-18T05:59:11.730Z,107.40
2022-12-18T06:00:18.319Z,96.20
2022-12-18T06:01:25.976Z,91.32
2022-12-18T06:02:30.400Z,94.15
2022-12-18T06:03:34.176Z,92.70
2022-12-18T06:04:37.602Z,84.05
2022-12-18T06:05:45.461Z,73.68
2022-12-18T06:06:48.067Z,77.38
2022-12-18T06:07:53.227Z,77.53
2022-12-18T06:08:58.353Z,84.38
2022-12-18T06:10:01.081Z,74.45
2022-12-18T06:11:03.604Z,81.68
2022-12-18T06:12:07.872Z,72.47
2022-12-18T06:13:12.249Z,79.63
2022-12-18T06:14:18.408Z,82.13
2022-12-18T06:15:21.061Z,107.70
2022-12-18T06:16:27.513Z,119.75
2022-12-18T06:17:33.794Z,140.13
2022-12-18T06:18:39.418Z,121.32
2022-12-18T06:19:42.928Z,116.43
2022-12-18T06:20:45.230Z,101.88
2022-12-18T06:21:48.328Z,98.57
2022-12-18T06:22:50.786Z,83.93
2022-12-18T06:23:53.160Z,100.07
2022-12-18T06:24:55.394Z,99.75
2022-12-18T06:25:58.294Z,90.15
2022-12-18T06:27:00.637Z,97.78
2022-12-18T06:28:03.916Z,98.63
2022-12-18T06:29:08.009Z,97.95
2022-12-18T06:30:11.052Z,102.43
2022-12-18T06:31:13.751Z,122.35
2022-12-18T06:32:16.216Z,121.75
2022-12-18T06:33:18.928Z,109.72
2022-12-18T06:34:21.365Z,99.82
2022-12-18T06:35:25.233Z,104.80
2022-12-18T06:36:28.487Z,101.63
2022-12-18T06:37:32.782Z,100.18
2022-12-18T06:39:39.427Z,79.63
2022-12-18T06:40:41.923Z,82.18
2022-12-18T06:41:44.404Z,83.13
2022-12-18T06:42:46.993Z,83.53
2022-12-18T06:43:50.412Z,93.50
2022-12-18T06:45:13.091Z,148.30
2022-12-18T06:46:15.975Z,166.20
2022-12-18T06:47:19.428Z,189.05
2022-12-18T06:48:22.229Z,157.07
2022-12-18T06:49:30.297Z,127.70
2022-12-18T06:50:33.342Z,110.03
2022-12-18T06:51:36.292Z,83.30
2022-12-18T06:52:41.850Z,95.95
2022-12-18T06:53:44.416Z,78.35
2022-12-18T06:54:47.013Z,77.28
2022-12-18T06:55:49.737Z,78.97
2022-12-18T06:56:53.165Z,83.75
2022-12-18T06:57:55.758Z,83.15
2022-12-18T06:59:00.953Z,73.35
2022-12-18T07:00:06.850Z,66.30
2022-12-18T07:01:12.089Z,75.90
2022-12-18T07:02:15.516Z,73.82
2022-12-18T07:03:18.272Z,69.32
2022-12-18T07:04:20.900Z,75.30
2022-12-18T07:05:28.926Z,74.90
2022-12-18T07:06:31.532Z,71.28
2022-12-18T07:07:36.037Z,77.95
2022-12-18T07:08:38.637Z,77.10
2022-12-18T07:09:41.335Z,76.97
2022-12-18T07:10:47.631Z,71.07
2022-12-18T07:11:54.612Z,67.05
2022-12-18T07:13:04.716Z,68.60
2022-12-18T07:14:30.575Z,77.00
2022-12-18T07:15:41.118Z,77.03
2022-12-18T07:16:43.929Z,75.78
2022-12-18T07:17:46.538Z,81.60
2022-12-18T07:18:49.288Z,79.10
2022-12-18T07:19:51.986Z,83.63
2022-12-18T07:20:54.504Z,81.55
2022-12-18T07:21:57.369Z,78.13
2022-12-18T07:23:00.175Z,84.20
2022-12-18T07:24:04.618Z,68.78
2022-12-18T07:26:14.704Z,74.20
2022-12-18T07:27:18.446Z,96.78
2022-12-18T07:28:21.085Z,70.90
2022-12-18T07:29:24.073Z,70.55
2022-12-18T07:30:27.251Z,68.53
2022-12-18T07:31:29.613Z,70.03
2022-12-18T07:32:32.355Z,91.13
2022-12-18T07:33:35.913Z,79.20
2022-12-18T07:34:38.325Z,80.03
2022-12-18T07:35:40.913Z,74.43
2022-12-18T07:36:46.524Z,73.60
2022-12-18T07:37:49.185Z,76.78
2022-12-18T07:38:54.178Z,70.78
2022-12-18T07:39:56.948Z,82.22
2022-12-18T07:41:09.066Z,79.03
2022-12-18T07:42:29.825Z,76.60
2022-12-18T07:43:32.472Z,61.55
2022-12-18T07:44:34.840Z,66.10
2022-12-18T07:45:37.555Z,79.90
2022-12-18T07:46:40.135Z,71.85
2022-12-18T07:47:42.916Z,72.82
2022-12-18T07:48:49.256Z,76.78
2022-12-18T07:49:52.751Z,150.48
2022-12-18T07:50:55.208Z,174.73
2022-12-18T07:51:58.843Z,117.25
2022-12-18T07:53:04.719Z,108.15
2022-12-18T07:54:07.080Z,101.25
2022-12-18T07:55:09.760Z,76.35
2022-12-18T07:56:30.876Z,78.82
2022-12-18T07:57:49.967Z,83.85
2022-12-18T07:58:53.500Z,77.80
2022-12-18T08:00:00.717Z,80.53
2022-12-18T08:01:08.281Z,87.07
2022-12-18T08:02:10.992Z,85.22
2022-12-18T08:03:15.207Z,79.95
2022-12-18T08:04:17.726Z,72.93
2022-12-18T08:05:23.792Z,67.85
2022-12-18T08:06:26.769Z,68.43
2022-12-18T08:07:29.461Z,62.78
2022-12-18T08:08:32.218Z,73.22
2022-12-18T08:09:34.727Z,75.30
2022-12-18T08:10:39.232Z,65.10
2022-12-18T08:11:41.841Z,62.90
2022-12-18T08:12:44.525Z,60.22
2022-12-18T08:13:46.952Z,68.00
2022-12-18T08:14:49.400Z,63.90
2022-12-18T08:15:59.587Z,70.78
2022-12-18T08:17:02.781Z,59.72
2022-12-18T08:18:09.026Z,58.17
2022-12-18T08:19:14.035Z,67.15
2022-12-18T08:20:16.568Z,72.13
2022-12-18T08:21:25.671Z,74.85
2022-12-18T08:22:31.012Z,79.70
2022-12-18T08:23:35.898Z,70.20
2022-12-18T08:24:40.614Z,88.28
2022-12-18T08:25:43.431Z,100.72
2022-12-18T08:27:01.027Z,83.57
2022-12-18T08:28:08.350Z,82.57
2022-12-18T08:29:11.545Z,79.35
2022-12-18T08:30:14.179Z,84.55
2022-12-18T08:31:17.106Z,81.68
2022-12-18T08:32:28.513Z,72.03
2022-12-18T08:33:31.823Z,74.05
2022-12-18T08:34:43.305Z,69.70
2022-12-18T08:35:46.259Z,74.85
2022-12-18T08:36:48.597Z,71.75
2022-12-18T08:37:55.536Z,79.75
2022-12-18T08:38:58.589Z,76.18
2022-12-18T08:40:02.070Z,86.72
2022-12-18T08:41:08.453Z,100.05
2022-12-18T08:42:29.928Z,114.82
2022-12-18T08:43:51.151Z,110.78
2022-12-18T08:44:54.688Z,82.53
2022-12-18T08:45:57.152Z,84.15
2022-12-18T08:46:59.777Z,79.45
2022-12-18T08:48:02.152Z,68.18
2022-12-18T08:49:05.376Z,69.47
2022-12-18T08:50:08.488Z,68.30
2022-12-18T08:51:13.070Z,67.97
2022-12-18T08:52:19.771Z,60.30
2022-12-18T08:53:24.006Z,100.88
2022-12-18T08:54:27.522Z,110.20
2022-12-18T08:56:47.296Z,60.95
2022-12-18T08:57:51.328Z,67.55
2022-12-18T08:58:54.968Z,67.05
2022-12-18T08:59:57.570Z,72.13
2022-12-18T09:01:05.362Z,73.70
2022-12-18T09:02:09.535Z,80.22
2022-12-18T09:04:19.980Z,89.88
2022-12-18T09:05:22.548Z,107.78
2022-12-18T09:06:26.774Z,75.78
2022-12-18T09:07:29.645Z,107.03
2022-12-18T09:08:32.812Z,66.47
2022-12-18T09:09:38.594Z,61.70
2022-12-18T09:10:50.530Z,71.80
2022-12-18T09:11:53.185Z,59.88
2022-12-18T09:12:57.327Z,63.05
2022-12-18T09:14:01.713Z,56.55
2022-12-18T09:15:05.679Z,56.85
2022-12-18T09:16:08.470Z,58.13
2022-12-18T09:17:11.087Z,59.20
2022-12-18T09:18:15.978Z,51.95
2022-12-18T09:19:18.850Z,51.47
2022-12-18T09:20:21.520Z,55.95
2022-12-18T09:21:24.341Z,50.42
2022-12-18T09:22:31.910Z,55.47
2022-12-18T09:23:39.128Z,61.55
2022-12-18T09:24:45.373Z,62.35
2022-12-18T09:25:53.862Z,58.85
2022-12-18T09:26:57.997Z,53.15
2022-12-18T09:29:07.760Z,54.60
2022-12-18T09:30:14.087Z,55.58
2022-12-18T09:31:18.791Z,55.60
2022-12-18T09:32:22.810Z,54.60
2022-12-18T09:33:25.988Z,72.18
2022-12-18T09:34:31.882Z,55.90
2022-12-18T09:35:38.043Z,59.35
2022-12-18T09:36:41.399Z,54.60
2022-12-18T09:37:44.658Z,59.25
2022-12-18T09:38:50.711Z,56.55
2022-12-18T09:39:55.157Z,50.60
2022-12-18T09:41:39.684Z,51.90
2022-12-18T09:42:46.903Z,53.35
2022-12-18T09:43:57.341Z,60.53
2022-12-18T09:47:40.053Z,57.20
2022-12-18T09:48:45.916Z,45.08
2022-12-18T09:49:53.968Z,58.75
2022-12-18T09:51:02.167Z,58.30
2022-12-18T09:52:35.380Z,52.17
2022-12-18T09:53:40.609Z,59.30
2022-12-18T09:54:45.505Z,56.30
2022-12-18T09:55:49.863Z,60.78
2022-12-18T09:56:52.913Z,59.40
2022-12-18T09:58:06.008Z,66.05
2022-12-18T09:59:28.634Z,65.45
2022-12-18T10:00:37.687Z,62.63
2022-12-18T10:01:44.587Z,63.22
2022-12-18T10:03:03.365Z,57.35
2022-12-18T10:04:10.109Z,52.03
2022-12-18T10:05:16.793Z,52.85
2022-12-18T10:06:40.212Z,55.35
2022-12-18T10:08:07.071Z,54.25
2022-12-18T10:09:38.572Z,55.35
2022-12-18T10:10:55.769Z,46.80
2022-12-18T10:12:15.602Z,45.80
2022-12-18T10:13:29.080Z,47.38
2022-12-18T10:14:59.670Z,46.53
2022-12-18T10:16:34.325Z,43.50
2022-12-18T10:18:22.166Z,55.25
2022-12-18T10:19:50.496Z,55.95
2022-12-18T10:20:55.979Z,50.58
2022-12-18T10:22:11.806Z,46.40
2022-12-18T10:23:22.998Z,50.53
2022-12-18T10:24:35.139Z,52.88
2022-12-18T10:25:47.204Z,47.08
2022-12-18T10:26:49.762Z,54.40
2022-12-18T10:27:56.597Z,47.53
2022-12-18T10:29:05.271Z,49.47
2022-12-18T10:30:17.557Z,48.95
2022-12-18T10:31:25.389Z,48.85
2022-12-18T10:32:30.630Z,52.50
2022-12-18T10:33:34.572Z,62.08
2022-12-18T10:34:36.990Z,62.35
2022-12-18T10:35:42.971Z,59.45
2022-12-18T10:36:48.860Z,56.92
2022-12-18T10:38:13.089Z,49.17
2022-12-18T10:39:24.464Z,57.08
2022-12-18T10:40:26.803Z,54.13
2022-12-18T10:41:29.649Z,51.22
2022-12-18T10:42:32.679Z,51.65
2022-12-18T10:43:37.733Z,50.22
2022-12-18T10:44:40.044Z,50.20
2022-12-18T10:45:43.608Z,49.22
2022-12-18T10:46:48.163Z,56.17
2022-12-18T10:47:51.283Z,57.28
2022-12-18T10:48:58.089Z,53.75
2022-12-18T10:50:02.589Z,58.38
2022-12-18T10:51:13.492Z,52.28
2022-12-18T10:52:20.714Z,62.05
2022-12-18T10:53:26.533Z,63.22
2022-12-18T10:54:36.232Z,59.00
2022-12-18T10:55:47.158Z,45.97
2022-12-18T10:56:49.751Z,54.40
2022-12-18T10:57:52.256Z,57.38
2022-12-18T10:59:07.250Z,59.38
2022-12-18T11:00:25.445Z,72.25
2022-12-18T11:01:28.638Z,75.28
2022-12-18T11:02:39.397Z,53.65
2022-12-18T11:03:47.296Z,58.40
2022-12-18T11:04:54.209Z,53.47
2022-12-18T11:06:18.249Z,56.95
2022-12-18T11:07:20.901Z,49.67
2022-12-18T11:08:24.473Z,60.03
2022-12-18T11:09:33.060Z,50.85
2022-12-18T11:10:38.845Z,59.42
2022-12-18T11:11:42.436Z,56.13
2022-12-18T11:12:45.171Z,58.85
2022-12-18T11:14:00.603Z,54.88
2022-12-18T11:15:02.920Z,50.75
2022-12-18T11:16:05.542Z,53.42
2022-12-18T11:17:26.494Z,56.35
2022-12-18T11:18:33.167Z,56.40
2022-12-18T11:19:37.047Z,54.63
2022-12-18T11:20:40.401Z,58.60
2022-12-18T11:21:43.735Z,55.00
2022-12-18T11:22:57.178Z,58.42
2022-12-18T11:23:59.629Z,65.15
2022-12-18T11:25:34.429Z,57.97
2022-12-18T11:26:38.298Z,57.03
2022-12-18T11:27:41.830Z,51.53
2022-12-18T11:29:13.300Z,57.53
2022-12-18T11:30:18.959Z,51.22
2022-12-18T11:31:27.150Z,54.67
2022-12-18T11:32:35.349Z,56.85
2022-12-18T11:33:53.156Z,60.72
2022-12-18T11:35:20.851Z,50.58
2022-12-18T11:36:24.148Z,55.35
2022-12-18T11:37:28.146Z,50.03
2022-12-18T11:38:37.374Z,55.05
2022-12-18T11:40:02.700Z,54.95
2022-12-18T11:41:23.892Z,64.53
2022-12-18T11:42:38.936Z,60.15
2022-12-18T11:43:52.440Z,54.30
2022-12-18T11:45:14.020Z,61.58
2022-12-18T11:46:25.483Z,61.00
2022-12-18T11:47:39.311Z,52.00
2022-12-18T11:48:51.521Z,51.13
2022-12-18T11:49:56.678Z,62.67
2022-12-18T11:51:02.959Z,71.20
2022-12-18T11:52:24.476Z,66.15
2022-12-18T11:53:28.521Z,60.40
2022-12-18T11:54:31.149Z,62.40
2022-12-18T11:56:03.683Z,68.82
2022-12-18T11:57:36.101Z,68.07
2022-12-18T11:58:38.589Z,57.92
2022-12-18T12:00:04.986Z,61.45
2022-12-18T12:01:56.903Z,60.60
2022-12-18T12:03:14.935Z,61.53
2022-12-18T12:04:33.628Z,65.25
2022-12-18T12:05:56.394Z,58.22
2022-12-18T12:07:10.755Z,54.72
2022-12-18T12:08:18.745Z,64.50
2022-12-18T12:09:33.861Z,51.70
2022-12-18T12:10:45.235Z,52.10
2022-12-18T12:12:25.398Z,58.13
2022-12-18T12:13:38.175Z,63.15
2022-12-18T12:14:52.928Z,52.08
2022-12-18T12:16:56.921Z,51.45
2022-12-18T12:18:29.234Z,47.08
2022-12-18T12:19:43.218Z,55.08
2022-12-18T12:21:02.063Z,59.90
2022-12-18T12:22:22.767Z,63.03
2022-12-18T12:23:40.196Z,47.78
2022-12-18T12:25:01.159Z,54.22
2022-12-18T12:26:09.098Z,59.10
2022-12-18T12:27:41.851Z,64.40
2022-12-18T12:29:10.706Z,50.83
2022-12-18T12:30:26.953Z,59.85
2022-12-18T12:31:40.889Z,54.15
2022-12-18T12:33:01.523Z,54.88
2022-12-18T12:34:20.428Z,51.35
2022-12-18T12:35:40.607Z,63.65
2022-12-18T12:37:24.480Z,60.30
2022-12-18T12:38:33.078Z,56.10
2022-12-18T12:39:42.022Z,49.83
2022-12-18T12:41:02.556Z,53.03
2022-12-18T12:42:31.118Z,54.70
2022-12-18T12:43:50.485Z,54.03
2022-12-18T12:44:57.843Z,58.45
2022-12-18T12:46:06.145Z,54.20
2022-12-18T12:47:17.677Z,60.95
2022-12-18T12:48:34.348Z,68.22
2022-12-18T12:49:40.759Z,60.53
2022-12-18T12:50:43.862Z,50.22
2022-12-18T12:52:08.435Z,61.45
2022-12-18T12:53:21.375Z,58.17
2022-12-18T12:54:27.386Z,69.20
2022-12-18T12:55:31.144Z,60.47
2022-12-18T12:56:43.744Z,52.58
2022-12-18T12:58:04.619Z,64.35
2022-12-18T12:59:24.787Z,62.85
2022-12-18T13:00:32.411Z,57.78
2022-12-18T13:01:56.815Z,56.70
2022-12-18T13:03:10.381Z,69.38
2022-12-18T13:04:26.928Z,64.65
2022-12-18T13:06:13.530Z,62.05
2022-12-18T13:07:30.852Z,64.28
2022-12-18T13:08:57.036Z,60.80
2022-12-18T13:10:31.788Z,62.60
2022-12-18T13:12:00.412Z,63.20
2022-12-18T13:13:10.791Z,55.47
2022-12-18T13:14:32.898Z,81.05
2022-12-18T13:15:42.521Z,71.38
2022-12-18T13:16:45.420Z,68.88
2022-12-18T13:17:49.384Z,61.78
2022-12-18T13:18:53.803Z,71.90
2022-12-18T13:20:15.934Z,64.80
2022-12-18T13:21:28.240Z,59.35
2022-12-18T13:22:44.358Z,64.95
2022-12-18T13:23:49.621Z,69.65
2022-12-18T13:24:52.632Z,69.45
2022-12-18T13:26:02.113Z,67.50
2022-12-18T13:27:43.081Z,60.38
2022-12-18T13:28:48.418Z,59.25
2022-12-18T13:29:53.031Z,58.67
2022-12-18T13:30:58.380Z,62.08
2022-12-18T13:32:02.808Z,63.45
2022-12-18T13:33:17.832Z,70.47
2022-12-18T13:34:28.186Z,66.60
2022-12-18T13:35:31.632Z,69.18
2022-12-18T13:36:37.525Z,71.00
2022-12-18T13:37:44.362Z,58.60
2022-12-18T13:38:46.865Z,61.25
2022-12-18T13:39:49.426Z,60.65
2022-12-18T13:40:51.769Z,66.15
2022-12-18T13:42:07.419Z,65.78
2022-12-18T13:43:21.965Z,67.38
2022-12-18T13:46:02.703Z,70.53
2022-12-18T13:47:25.672Z,64.25
2022-12-18T13:48:33.779Z,70.88
2022-12-18T13:49:45.421Z,69.80
2022-12-18T13:50:54.899Z,67.25
2022-12-18T13:52:00.572Z,65.63
2022-12-18T13:53:05.751Z,67.07
2022-12-18T13:54:36.710Z,61.08
2022-12-18T13:55:39.838Z,61.95
2022-12-18T13:56:46.039Z,62.58
2022-12-18T13:57:49.395Z,64.10
2022-12-18T13:59:09.957Z,67.22
2022-12-18T14:00:43.340Z,63.20
2022-12-18T14:02:02.523Z,70.30
2022-12-18T14:03:22.623Z,74.45
2022-12-18T14:04:29.138Z,79.53
2022-12-18T14:05:35.702Z,78.03
2022-12-18T14:06:38.963Z,76.53
2022-12-18T14:07:42.647Z,78.53
2022-12-18T14:08:48.352Z,73.05
2022-12-18T14:09:55.621Z,77.57
2022-12-18T14:11:06.702Z,69.38
2022-12-18T14:12:37.313Z,66.68
2022-12-18T14:13:45.298Z,77.63
2022-12-18T14:14:51.528Z,72.18
2022-12-18T14:15:59.266Z,73.45
2022-12-18T14:17:03.902Z,95.53
2022-12-18T14:18:26.602Z,85.78
2022-12-18T14:19:29.224Z,72.18
2022-12-18T14:20:34.130Z,64.68
2022-12-18T14:21:39.087Z,67.45
2022-12-18T14:22:50.923Z,79.70
2022-12-18T14:25:14.671Z,91.15
2022-12-18T14:26:36.052Z,92.50
2022-12-18T14:27:42.732Z,91.32
2022-12-18T14:28:46.127Z,101.72
2022-12-18T14:29:48.422Z,104.68
2022-12-18T14:30:51.293Z,112.95
2022-12-18T14:32:18.080Z,97.55
2022-12-18T14:33:27.054Z,106.13
2022-12-18T14:34:29.455Z,91.28
2022-12-18T14:35:33.247Z,66.13
2022-12-18T14:36:35.798Z,73.85
2022-12-18T14:37:38.238Z,68.00
2022-12-18T14:38:41.302Z,74.45
2022-12-18T14:40:03.186Z,72.07
2022-12-18T14:41:15.845Z,61.78
2022-12-18T14:42:18.501Z,70.00
2022-12-18T14:43:21.189Z,72.45
2022-12-18T14:44:28.632Z,68.82
2022-12-18T14:45:44.956Z,78.47
2022-12-18T14:46:49.154Z,72.07
2022-12-18T14:47:53.793Z,60.95
2022-12-18T14:48:58.689Z,63.22
2022-12-18T14:50:01.241Z,64.05
2022-12-18T14:51:09.157Z,73.85
2022-12-18T14:52:27.229Z,70.13
2022-12-18T14:53:38.292Z,59.78
2022-12-18T14:54:41.065Z,74.50
2022-12-18T14:55:49.216Z,68.85